sensor_id;sensor_type;location;lat;lon;timestamp;pressure;altitude;pressure_sealevel;temperature;humidity
25650;BME280;13505;45.196;5.696;2023-05-23T06:01:32;99149.41;;;17.64;79.57
25650;BME280;13505;45.196;5.696;2023-05-23T06:06:23;99149.00;;;17.93;77.32
25650;BME280;13505;45.196;5.696;2023-05-23T06:11:14;99156.56;;;18.11;76.19
25650;BME280;13505;45.196;5.696;2023-05-23T06:16:04;99152.81;;;18.13;75.75
25650;BME280;13505;45.196;5.696;2023-05-23T06:20:55;99157.44;;;18.23;77.09
25650;BME280;13505;45.196;5.696;2023-05-23T06:25:45;99141.66;;;18.31;75.98
25650;BME280;13505;45.196;5.696;2023-05-23T06:30:35;99139.22;;;18.39;75.36
25650;BME280;13505;45.196;5.696;2023-05-23T06:35:27;99145.91;;;18.34;74.32
25650;BME280;13505;45.196;5.696;2023-05-23T06:40:17;99142.81;;;17.93;76.14
25650;BME280;13505;45.196;5.696;2023-05-23T06:45:08;99152.13;;;18.34;75.95
25650;BME280;13505;45.196;5.696;2023-05-23T06:49:59;99157.31;;;18.36;75.20
25650;BME280;13505;45.196;5.696;2023-05-23T06:54:50;99158.03;;;18.72;74.53
25650;BME280;13505;45.196;5.696;2023-05-23T06:59:40;99167.97;;;18.93;73.56
25650;BME280;13505;45.196;5.696;2023-05-23T07:04:30;99157.41;;;18.80;73.61
25650;BME280;13505;45.196;5.696;2023-05-23T07:09:21;99158.09;;;19.05;73.81
25650;BME280;13505;45.196;5.696;2023-05-23T07:14:11;99156.75;;;18.99;73.75
25650;BME280;13505;45.196;5.696;2023-05-23T07:19:01;99158.94;;;19.49;71.62
25650;BME280;13505;45.196;5.696;2023-05-23T07:23:52;99146.78;;;19.99;68.12
25650;BME280;13505;45.196;5.696;2023-05-23T07:28:42;99145.19;;;20.49;66.54
25650;BME280;13505;45.196;5.696;2023-05-23T07:33:33;99130.94;;;20.99;64.98
25650;BME280;13505;45.196;5.696;2023-05-23T07:38:25;99125.59;;;21.48;61.75
25650;BME280;13505;45.196;5.696;2023-05-23T07:43:15;99131.84;;;21.19;61.30
25650;BME280;13505;45.196;5.696;2023-05-23T07:48:08;99125.31;;;21.61;60.28
25650;BME280;13505;45.196;5.696;2023-05-23T07:52:58;99118.63;;;22.05;59.15
25650;BME280;13505;45.196;5.696;2023-05-23T07:57:48;99114.25;;;22.04;59.80
25650;BME280;13505;45.196;5.696;2023-05-23T08:02:39;99115.06;;;22.14;58.67
25650;BME280;13505;45.196;5.696;2023-05-23T08:07:29;99110.97;;;22.10;57.66
25650;BME280;13505;45.196;5.696;2023-05-23T08:12:20;99109.31;;;22.37;56.75
25650;BME280;13505;45.196;5.696;2023-05-23T08:17:11;99110.00;;;23.13;56.61
25650;BME280;13505;45.196;5.696;2023-05-23T08:22:01;99097.16;;;22.89;55.88
25650;BME280;13505;45.196;5.696;2023-05-23T08:26:53;99098.72;;;23.73;55.36
25650;BME280;13505;45.196;5.696;2023-05-23T08:31:44;99091.13;;;23.94;52.20
25650;BME280;13505;45.196;5.696;2023-05-23T08:36:34;99092.19;;;24.28;54.93
25650;BME280;13505;45.196;5.696;2023-05-23T08:41:25;99089.94;;;24.58;53.24
25650;BME280;13505;45.196;5.696;2023-05-23T08:46:18;99088.97;;;24.67;52.29
25650;BME280;13505;45.196;5.696;2023-05-23T08:51:09;99086.16;;;24.86;52.20
25650;BME280;13505;45.196;5.696;2023-05-23T08:56:02;99087.69;;;24.80;52.87
25650;BME280;13505;45.196;5.696;2023-05-23T09:00:52;99075.25;;;25.29;51.38
25650;BME280;13505;45.196;5.696;2023-05-23T09:05:43;99070.69;;;25.38;52.19
25650;BME280;13505;45.196;5.696;2023-05-23T09:10:33;99064.78;;;25.75;50.67
25650;BME280;13505;45.196;5.696;2023-05-23T09:15:25;99065.44;;;25.86;52.12
25650;BME280;13505;45.196;5.696;2023-05-23T09:20:17;99060.00;;;25.94;52.28
25650;BME280;13505;45.196;5.696;2023-05-23T09:25:07;99059.91;;;26.36;51.96
25650;BME280;13505;45.196;5.696;2023-05-23T09:30:04;99061.06;;;26.41;52.42
25650;BME280;13505;45.196;5.696;2023-05-23T09:34:57;99052.69;;;26.19;53.33
25650;BME280;13505;45.196;5.696;2023-05-23T09:39:47;99048.69;;;26.70;52.11
25650;BME280;13505;45.196;5.696;2023-05-23T09:44:40;99044.25;;;27.09;50.18
25650;BME280;13505;45.196;5.696;2023-05-23T09:49:31;99039.56;;;26.48;52.51
25650;BME280;13505;45.196;5.696;2023-05-23T09:54:21;99035.19;;;26.70;52.27
25650;BME280;13505;45.196;5.696;2023-05-23T09:59:12;99039.94;;;27.77;48.42
25650;BME280;13505;45.196;5.696;2023-05-23T10:04:05;99053.66;;;27.37;48.91
25650;BME280;13505;45.196;5.696;2023-05-23T10:09:01;99048.06;;;27.77;48.79
25650;BME280;13505;45.196;5.696;2023-05-23T10:13:53;99042.75;;;27.30;49.63
25650;BME280;13505;45.196;5.696;2023-05-23T10:18:44;99043.03;;;26.25;51.71
25650;BME280;13505;45.196;5.696;2023-05-23T10:23:35;99037.81;;;27.10;51.35
25650;BME280;13505;45.196;5.696;2023-05-23T10:28:26;99035.69;;;27.59;49.55
25650;BME280;13505;45.196;5.696;2023-05-23T10:33:17;99033.41;;;28.01;48.53
25650;BME280;13505;45.196;5.696;2023-05-23T10:38:17;99030.22;;;28.12;48.92
25650;BME280;13505;45.196;5.696;2023-05-23T10:43:24;99013.69;;;28.59;47.23
25650;BME280;13505;45.196;5.696;2023-05-23T10:48:33;99029.94;;;28.59;47.48
25650;BME280;13505;45.196;5.696;2023-05-23T10:53:24;99029.47;;;28.55;46.98
25650;BME280;13505;45.196;5.696;2023-05-23T10:58:18;99020.41;;;27.96;49.04
25650;BME280;13505;45.196;5.696;2023-05-23T11:03:10;99020.03;;;27.99;48.67
25650;BME280;13505;45.196;5.696;2023-05-23T11:08:09;99020.25;;;27.44;50.91
25650;BME280;13505;45.196;5.696;2023-05-23T11:13:06;99004.13;;;28.11;49.57
25650;BME280;13505;45.196;5.696;2023-05-23T11:17:57;99013.59;;;28.52;47.99
25650;BME280;13505;45.196;5.696;2023-05-23T11:23:00;99000.13;;;28.81;46.02
25650;BME280;13505;45.196;5.696;2023-05-23T11:27:51;98995.69;;;28.95;46.58
25650;BME280;13505;45.196;5.696;2023-05-23T11:32:53;98995.13;;;28.41;48.29
25650;BME280;13505;45.196;5.696;2023-05-23T11:37:44;98993.41;;;28.55;47.97
25650;BME280;13505;45.196;5.696;2023-05-23T11:42:41;98997.50;;;28.88;46.46
25650;BME280;13505;45.196;5.696;2023-05-23T11:47:39;98988.97;;;28.91;46.54
25650;BME280;13505;45.196;5.696;2023-05-23T11:52:31;98997.47;;;28.66;47.24
25650;BME280;13505;45.196;5.696;2023-05-23T11:57:22;98991.22;;;28.65;46.92
25650;BME280;13505;45.196;5.696;2023-05-23T12:02:12;98994.03;;;28.05;49.10
25650;BME280;13505;45.196;5.696;2023-05-23T12:07:06;98988.44;;;28.59;47.07
25650;BME280;13505;45.196;5.696;2023-05-23T12:11:56;98986.41;;;28.46;47.15
25650;BME280;13505;45.196;5.696;2023-05-23T12:16:47;98991.25;;;28.50;46.39
25650;BME280;13505;45.196;5.696;2023-05-23T12:21:44;98977.59;;;28.07;48.28
25650;BME280;13505;45.196;5.696;2023-05-23T12:26:53;98978.91;;;27.96;48.54
25650;BME280;13505;45.196;5.696;2023-05-23T12:31:47;98976.78;;;28.43;47.54
25650;BME280;13505;45.196;5.696;2023-05-23T12:36:37;98980.97;;;27.64;48.13
25650;BME280;13505;45.196;5.696;2023-05-23T12:41:31;98974.19;;;26.68;52.25
25650;BME280;13505;45.196;5.696;2023-05-23T12:46:24;98987.13;;;27.04;51.56
25650;BME280;13505;45.196;5.696;2023-05-23T12:51:15;98971.94;;;27.56;50.19
25650;BME280;13505;45.196;5.696;2023-05-23T12:56:06;98967.34;;;27.57;50.70
25650;BME280;13505;45.196;5.696;2023-05-23T13:00:56;98963.78;;;27.71;49.72
25650;BME280;13505;45.196;5.696;2023-05-23T13:05:46;98963.56;;;27.43;49.61
25650;BME280;13505;45.196;5.696;2023-05-23T13:10:37;98954.66;;;27.57;50.05
25650;BME280;13505;45.196;5.696;2023-05-23T13:15:28;98958.91;;;27.82;48.54
25650;BME280;13505;45.196;5.696;2023-05-23T13:20:18;98963.66;;;27.35;49.94
25650;BME280;13505;45.196;5.696;2023-05-23T13:25:09;98953.38;;;28.05;48.54
25650;BME280;13505;45.196;5.696;2023-05-23T13:29:59;98940.19;;;28.17;48.23
25650;BME280;13505;45.196;5.696;2023-05-23T13:34:50;98946.63;;;27.79;48.14
25650;BME280;13505;45.196;5.696;2023-05-23T13:39:40;98949.41;;;27.86;48.54
25650;BME280;13505;45.196;5.696;2023-05-23T13:44:31;98937.53;;;27.87;47.53
25650;BME280;13505;45.196;5.696;2023-05-23T13:49:21;98929.97;;;27.82;47.76
25650;BME280;13505;45.196;5.696;2023-05-23T13:54:11;98925.56;;;27.36;49.56
25650;BME280;13505;45.196;5.696;2023-05-23T13:59:02;98928.00;;;27.46;48.58
25650;BME280;13505;45.196;5.696;2023-05-23T14:03:53;98918.47;;;27.50;48.34
25650;BME280;13505;45.196;5.696;2023-05-23T14:08:43;98925.09;;;27.48;48.39
25650;BME280;13505;45.196;5.696;2023-05-23T14:13:33;98918.28;;;27.37;48.87
25650;BME280;13505;45.196;5.696;2023-05-23T14:18:24;98929.03;;;27.30;48.94
25650;BME280;13505;45.196;5.696;2023-05-23T14:23:14;98931.53;;;27.31;48.32
25650;BME280;13505;45.196;5.696;2023-05-23T14:28:04;98926.56;;;27.05;48.65
25650;BME280;13505;45.196;5.696;2023-05-23T14:32:55;98932.81;;;26.82;50.05
25650;BME280;13505;45.196;5.696;2023-05-23T14:37:45;98922.25;;;26.96;50.25
25650;BME280;13505;45.196;5.696;2023-05-23T14:42:35;98940.09;;;26.82;49.85
25650;BME280;13505;45.196;5.696;2023-05-23T14:47:26;98932.66;;;26.60;50.44
25650;BME280;13505;45.196;5.696;2023-05-23T14:52:17;98927.25;;;26.37;51.12
25650;BME280;13505;45.196;5.696;2023-05-23T14:57:08;98931.94;;;26.43;50.81
25650;BME280;13505;45.196;5.696;2023-05-23T15:01:58;98922.97;;;26.43;50.59
25650;BME280;13505;45.196;5.696;2023-05-23T15:06:49;98921.59;;;26.15;51.95
25650;BME280;13505;45.196;5.696;2023-05-23T15:11:40;98928.97;;;25.98;52.23
25650;BME280;13505;45.196;5.696;2023-05-23T15:16:31;98931.00;;;25.96;52.72
25650;BME280;13505;45.196;5.696;2023-05-23T15:21:22;98932.59;;;26.14;52.69
25650;BME280;13505;45.196;5.696;2023-05-23T15:26:12;98939.72;;;26.38;51.02
25650;BME280;13505;45.196;5.696;2023-05-23T15:31:02;98940.34;;;26.17;52.18
25650;BME280;13505;45.196;5.696;2023-05-23T15:35:53;98932.28;;;26.09;51.11
25650;BME280;13505;45.196;5.696;2023-05-23T15:40:43;98922.97;;;25.80;52.35
25650;BME280;13505;45.196;5.696;2023-05-23T15:45:35;98931.00;;;25.56;51.95
25650;BME280;13505;45.196;5.696;2023-05-23T15:50:26;98939.16;;;25.15;53.80
25650;BME280;13505;45.196;5.696;2023-05-23T15:55:16;98944.06;;;24.78;55.79
25650;BME280;13505;45.196;5.696;2023-05-23T16:00:07;98934.94;;;24.71;57.19
25650;BME280;13505;45.196;5.696;2023-05-23T16:04:58;98943.00;;;24.37;57.41
25650;BME280;13505;45.196;5.696;2023-05-23T16:09:48;98949.44;;;24.02;58.35
25650;BME280;13505;45.196;5.696;2023-05-23T16:14:39;98944.16;;;23.83;58.65
25650;BME280;13505;45.196;5.696;2023-05-23T16:19:29;98939.41;;;23.77;59.92
25650;BME280;13505;45.196;5.696;2023-05-23T16:24:20;98935.38;;;23.73;60.31
25650;BME280;13505;45.196;5.696;2023-05-23T16:29:12;98936.47;;;23.62;61.32
25650;BME280;13505;45.196;5.696;2023-05-23T16:34:02;98940.91;;;23.37;62.48
25650;BME280;13505;45.196;5.696;2023-05-23T16:38:53;98926.81;;;23.43;61.92
25650;BME280;13505;45.196;5.696;2023-05-23T16:43:43;98932.91;;;23.53;61.49
25650;BME280;13505;45.196;5.696;2023-05-23T16:48:34;98917.72;;;23.44;61.94
25650;BME280;13505;45.196;5.696;2023-05-23T16:53:24;98920.16;;;23.29;63.15
25650;BME280;13505;45.196;5.696;2023-05-23T16:58:15;98933.16;;;23.16;65.98
25650;BME280;13505;45.196;5.696;2023-05-23T17:03:05;98938.38;;;22.91;67.45
25650;BME280;13505;45.196;5.696;2023-05-23T17:07:56;98944.47;;;22.75;67.24
25650;BME280;13505;45.196;5.696;2023-05-23T17:12:46;98939.16;;;22.65;67.11
25650;BME280;13505;45.196;5.696;2023-05-23T17:17:36;98936.78;;;22.62;66.74
25650;BME280;13505;45.196;5.696;2023-05-23T17:22:28;98934.00;;;22.35;68.15
25650;BME280;13505;45.196;5.696;2023-05-23T17:27:18;98949.09;;;22.36;67.62
25650;BME280;13505;45.196;5.696;2023-05-23T17:32:09;98951.19;;;21.96;69.55
25650;BME280;13505;45.196;5.696;2023-05-23T17:36:59;98953.09;;;21.86;71.31
25650;BME280;13505;45.196;5.696;2023-05-23T17:41:50;98958.59;;;21.84;73.49
25650;BME280;13505;45.196;5.696;2023-05-23T17:46:40;98958.41;;;21.96;72.29
25650;BME280;13505;45.196;5.696;2023-05-23T17:51:30;98956.66;;;22.05;71.25
25650;BME280;13505;45.196;5.696;2023-05-23T17:56:21;98970.38;;;22.01;70.81
